Time;durP1;ratioP1;P1;durP2;ratioP2;P2;SDS_P1;SDS_P2;PMS_P1;PMS_P2;Temp;Humidity;BMP_temperature;BMP_pressure;BME280_temperature;BME280_humidity;BME280_pressure;Samples;Min_cycle;Max_cycle;Signal;HPM_P1;HPM_P2
2022/05/01 00:01:19;;;;;;;8.75;5.32;;;;;;;12.67;51.33;102410.34;5121988;28;20102;-69
2022/05/01 00:03:47;;;;;;;7.93;5.00;;;;;;;12.64;51.26;102414.28;5114655;28;20043;-69
2022/05/01 00:06:15;;;;;;;9.52;6.28;;;;;;;12.69;51.38;102421.78;5130860;28;20082;-70
2022/05/01 00:08:43;;;;;;;6.43;4.88;;;;;;;12.69;51.40;102411.00;5131860;28;20059;-69
2022/05/01 00:11:13;;;;;;;11.57;5.65;;;;;;;12.68;51.31;102418.25;5118282;28;20082;-69
2022/05/01 00:13:43;;;;;;;10.00;5.07;;;;;;;12.68;51.45;102420.94;5099076;28;20087;-69
2022/05/01 00:16:11;;;;;;;10.23;4.70;;;;;;;12.68;51.39;102420.94;5123492;28;20040;-69
2022/05/01 00:18:40;;;;;;;8.18;4.78;;;;;;;12.68;51.20;102412.84;5122941;28;20479;-69
2022/05/01 00:21:09;;;;;;;8.65;5.15;;;;;;;12.68;51.21;102412.03;5122625;28;20063;-69
2022/05/01 00:23:37;;;;;;;7.18;4.85;;;;;;;12.67;51.38;102411.19;5131005;28;20142;-69
2022/05/01 00:26:06;;;;;;;8.30;4.88;;;;;;;12.62;51.51;102402.84;5119451;28;20071;-69
2022/05/01 00:28:37;;;;;;;7.32;4.80;;;;;;;12.66;51.58;102409.53;5125949;28;20040;-69
2022/05/01 00:31:06;;;;;;;5.88;4.80;;;;;;;12.63;51.53;102399.13;5119952;28;20074;-69
2022/05/01 00:36:28;;;;;;;7.03;5.18;;;;;;;12.62;51.68;102405.56;5122743;28;20087;-69
2022/05/01 00:38:58;;;;;;;9.18;5.60;;;;;;;12.62;51.71;102405.56;5117543;27;20480;-69
2022/05/01 00:41:26;;;;;;;7.18;5.18;;;;;;;12.61;51.51;102403.88;5124902;27;20055;-71
2022/05/01 00:44:03;;;;;;;8.77;6.25;;;;;;;12.61;51.80;102397.66;5123164;27;20043;-69
2022/05/01 00:46:33;;;;;;;8.30;4.88;;;;;;;12.60;51.75;102402.22;5132671;27;20051;-69
2022/05/01 00:49:02;;;;;;;8.85;5.45;;;;;;;12.60;51.73;102396.00;5124701;27;20051;-69
2022/05/01 00:51:31;;;;;;;7.25;5.45;;;;;;;12.60;51.78;102404.09;5124976;27;20079;-69
2022/05/01 00:53:59;;;;;;;9.25;6.13;;;;;;;12.60;51.79;102398.69;5126185;27;20059;-70
2022/05/01 00:56:30;;;;;;;8.77;5.32;;;;;;;12.59;51.76;102397.03;5129540;27;20043;-69
2022/05/01 00:58:59;;;;;;;8.13;5.20;;;;;;;12.58;51.75;102393.50;5113655;28;20082;-69
2022/05/01 01:01:27;;;;;;;8.38;5.90;;;;;;;12.58;51.82;102392.66;5118362;27;20086;-69
2022/05/01 01:03:55;;;;;;;6.60;5.30;;;;;;;12.57;51.93;102388.28;5125197;28;20075;-69
2022/05/01 01:06:23;;;;;;;8.80;5.93;;;;;;;12.57;51.93;102388.28;5113589;28;20058;-69
2022/05/01 01:08:51;;;;;;;7.25;5.70;;;;;;;12.56;51.98;102387.47;5131451;27;20115;-69
2022/05/01 01:11:19;;;;;;;10.63;6.00;;;;;;;12.55;52.23;102379.56;5125475;27;20063;-69
2022/05/01 01:13:47;;;;;;;10.18;6.20;;;;;;;12.54;52.19;102391.38;5119373;27;20071;-69
2022/05/01 01:16:16;;;;;;;8.63;5.53;;;;;;;12.53;52.20;102387.84;5124414;27;20078;-70
2022/05/01 01:18:47;;;;;;;8.93;5.60;;;;;;;12.52;52.22;102388.06;5126638;27;20051;-69
2022/05/01 01:21:16;;;;;;;10.32;5.97;;;;;;;12.52;52.07;102380.78;5126913;27;20051;-69
2022/05/01 01:23:44;;;;;;;9.63;5.55;;;;;;;12.52;52.29;102385.34;5134165;27;20043;-68
2022/05/01 01:26:14;;;;;;;8.50;5.93;;;;;;;12.51;52.36;102379.13;5130682;27;20086;-69
2022/05/01 01:28:43;;;;;;;9.68;5.57;;;;;;;12.51;52.07;102389.91;5134641;27;20048;-71
2022/05/01 01:33:59;;;;;;;7.15;5.68;;;;;;;12.50;52.43;102385.56;5111688;27;20051;-69
2022/05/01 01:36:30;;;;;;;7.53;5.43;;;;;;;12.51;52.28;102386.38;5118744;28;20472;-68
2022/05/01 01:38:58;;;;;;;7.80;5.43;;;;;;;12.51;52.43;102389.09;5125270;27;20090;-68
2022/05/01 01:41:29;;;;;;;8.23;5.45;;;;;;;12.50;52.04;102379.31;5115864;27;20083;-68
2022/05/01 01:43:57;;;;;;;8.07;5.60;;;;;;;12.49;52.63;102385.75;5113486;28;20047;-68
2022/05/01 01:46:26;;;;;;;8.40;5.30;;;;;;;12.35;52.50;102363.25;5123027;28;20054;-70
2022/05/01 01:48:54;;;;;;;10.07;5.60;;;;;;;12.48;52.64;102381.38;5128142;27;20125;-71
2022/05/01 01:51:22;;;;;;;9.25;6.68;;;;;;;12.42;52.85;102368.69;5124495;28;20075;-68
2022/05/01 01:53:52;;;;;;;13.75;6.43;;;;;;;12.46;52.63;102368.09;5127912;27;20506;-68
2022/05/01 01:56:19;;;;;;;9.57;5.57;;;;;;;12.47;52.59;102372.47;5122377;27;20070;-68
2022/05/01 01:58:48;;;;;;;9.70;5.60;;;;;;;12.45;52.77;102377.22;5124788;27;20493;-68
2022/05/01 02:01:15;;;;;;;9.30;5.50;;;;;;;12.45;52.71;102377.22;5126681;27;20492;-69
2022/05/01 02:03:43;;;;;;;10.50;5.95;;;;;;;12.44;52.86;102383.63;5132442;27;20500;-70
2022/05/01 02:06:11;;;;;;;9.18;6.40;;;;;;;12.45;52.63;102384.47;5124842;27;20123;-69
2022/05/01 02:08:40;;;;;;;9.88;6.28;;;;;;;12.45;52.69;102377.22;5116468;27;20086;-70
2022/05/01 02:11:10;;;;;;;11.02;6.32;;;;;;;12.44;52.66;102377.41;5130335;27;20103;-69
2022/05/01 02:13:38;;;;;;;9.63;6.05;;;;;;;12.39;52.76;102373.44;5137050;27;20043;-69
2022/05/01 02:16:06;;;;;;;8.98;5.95;;;;;;;12.43;53.00;102373.88;5122644;27;20086;-69
2022/05/01 02:18:34;;;;;;;10.35;5.63;;;;;;;12.42;52.60;102374.09;5129466;27;20043;-69
2022/05/01 02:23:48;;;;;;;9.88;5.75;;;;;;;12.42;52.76;102368.69;5127157;27;21410;-69
2022/05/01 02:26:17;;;;;;;7.63;6.10;;;;;;;12.40;53.02;102368.88;5124871;28;20067;-69
2022/05/01 02:28:45;;;;;;;8.82;5.65;;;;;;;12.41;53.02;102367.03;5123387;27;20052;-69
2022/05/01 02:31:12;;;;;;;9.95;6.20;;;;;;;12.38;52.98;102368.25;5115564;27;20061;-69
2022/05/01 02:33:40;;;;;;;8.70;5.88;;;;;;;12.39;52.77;102361.81;5136425;27;20051;-69
2022/05/01 02:36:08;;;;;;;9.93;6.43;;;;;;;12.37;53.02;102364.72;5123927;27;20047;-68
2022/05/01 02:38:36;;;;;;;12.32;7.22;;;;;;;12.37;53.11;102358.50;5116204;28;20047;-69
2022/05/01 02:41:04;;;;;;;10.23;6.85;;;;;;;12.36;53.00;102354.13;5125367;27;20048;-69
2022/05/01 02:43:33;;;;;;;9.25;6.65;;;;;;;12.35;53.20;102352.47;5117017;28;20047;-68
2022/05/01 02:46:00;;;;;;;8.50;6.40;;;;;;;12.34;53.24;102353.50;5114776;27;20058;-69
2022/05/01 02:48:28;;;;;;;10.98;6.40;;;;;;;12.33;53.01;102355.34;5126538;27;20075;-69
2022/05/01 02:50:56;;;;;;;9.63;6.80;;;;;;;12.30;53.10;102344.13;5121376;28;20067;-69
2022/05/01 02:53:24;;;;;;;9.68;6.90;;;;;;;12.30;53.03;102352.22;5131149;27;20078;-69
2022/05/01 02:55:52;;;;;;;10.45;7.43;;;;;;;12.27;53.38;102350.75;5124582;27;20074;-69
2022/05/01 02:58:19;;;;;;;10.77;6.90;;;;;;;12.27;53.34;102349.91;5116281;28;20076;-69
2022/05/01 03:00:48;;;;;;;10.20;7.13;;;;;;;12.27;53.21;102345.34;5129881;27;20067;-69
2022/05/01 03:03:16;;;;;;;8.70;6.75;;;;;;;12.28;53.14;102351.59;5113635;28;20054;-71
2022/05/01 03:05:44;;;;;;;13.48;7.18;;;;;;;12.26;53.41;102349.09;5108676;27;20047;-70
2022/05/01 03:08:12;;;;;;;10.65;6.72;;;;;;;12.25;53.32;102347.41;5117831;28;20131;-70
2022/05/01 03:10:41;;;;;;;8.32;6.22;;;;;;;12.25;53.24;102344.72;5122533;28;20075;-68
2022/05/01 03:13:08;;;;;;;10.02;7.28;;;;;;;12.24;53.27;102340.38;5110948;28;20138;-69
2022/05/01 03:15:36;;;;;;;9.85;6.95;;;;;;;12.24;53.17;102339.53;5105099;28;20064;-70
2022/05/01 03:23:36;;;;;;;11.90;7.22;;;;;;;12.22;53.13;102333.50;5116518;27;20067;-70
2022/05/01 03:26:04;;;;;;;9.38;6.60;;;;;;;12.15;53.05;102321.84;5122010;28;20081;-70
2022/05/01 03:28:32;;;;;;;9.25;7.18;;;;;;;12.21;53.19;102332.66;5129525;27;20043;-70
2022/05/01 03:31:00;;;;;;;10.93;6.97;;;;;;;12.23;53.20;102335.16;5120592;28;20039;-68
2022/05/01 03:33:31;;;;;;;10.93;6.55;;;;;;;12.11;53.19;102307.13;4757288;28;9999936;-68
2022/05/01 03:35:58;;;;;;;11.43;6.68;;;;;;;12.24;53.24;102328.75;5119975;28;20051;-68
2022/05/01 03:38:26;;;;;;;8.75;6.15;;;;;;;12.23;53.00;102327.91;5125579;28;20055;-69
2022/05/01 03:40:54;;;;;;;11.35;6.55;;;;;;;12.19;53.20;102313.16;5134425;28;20043;-69
2022/05/01 03:43:24;;;;;;;12.10;6.72;;;;;;;12.24;53.16;102326.06;5120557;28;20069;-69
2022/05/01 03:45:52;;;;;;;10.43;6.65;;;;;;;12.24;53.08;102326.06;5124548;28;20314;-69
2022/05/01 03:48:20;;;;;;;11.32;6.78;;;;;;;12.24;53.24;102321.50;5108225;28;20048;-69
2022/05/01 03:50:52;;;;;;;9.25;6.32;;;;;;;12.13;53.04;102307.75;5133248;28;20043;-69
2022/05/01 03:53:19;;;;;;;13.07;6.90;;;;;;;12.25;52.99;102322.31;5126678;28;20094;-69
2022/05/01 03:55:48;;;;;;;11.43;6.55;;;;;;;12.24;52.93;102317.97;5121946;28;20075;-68
2022/05/01 03:58:16;;;;;;;9.23;6.30;;;;;;;12.23;53.11;102319.81;5127180;28;20075;-69
2022/05/01 04:00:44;;;;;;;8.82;7.07;;;;;;;12.23;53.19;102321.69;5126615;28;20054;-69
2022/05/01 04:03:12;;;;;;;10.38;7.05;;;;;;;12.22;53.18;102320.84;5130269;28;20143;-69
2022/05/01 04:05:41;;;;;;;11.10;7.38;;;;;;;12.18;53.22;102314.19;5129294;28;20187;-69
2022/05/01 04:08:10;;;;;;;10.60;6.72;;;;;;;12.20;53.42;102324.78;5122998;28;20518;-69
2022/05/01 04:10:40;;;;;;;9.80;6.70;;;;;;;12.20;53.04;102319.38;5121029;28;20151;-69
2022/05/01 04:13:08;;;;;;;9.80;6.95;;;;;;;12.20;53.30;102324.78;5121573;27;20047;-68
2022/05/01 04:15:37;;;;;;;11.30;7.13;;;;;;;12.18;53.23;102319.59;5123625;28;20079;-69
2022/05/01 04:18:06;;;;;;;7.88;6.45;;;;;;;12.17;53.34;102317.91;5119647;28;20561;-69
2022/05/01 04:20:34;;;;;;;9.55;6.45;;;;;;;12.16;53.30;102318.94;5122474;27;20072;-69
2022/05/01 04:23:03;;;;;;;10.45;6.70;;;;;;;12.17;53.22;102314.38;5131051;27;20082;-69
2022/05/01 04:25:33;;;;;;;11.10;7.07;;;;;;;12.09;53.49;102304.63;5125919;27;20560;-69
2022/05/01 04:28:03;;;;;;;10.00;7.50;;;;;;;12.14;53.42;102321.00;5142178;27;20039;-69
2022/05/01 04:30:32;;;;;;;10.43;7.22;;;;;;;12.13;53.39;102322.06;5137324;27;20079;-69
2022/05/01 04:33:01;;;;;;;9.43;7.22;;;;;;;12.12;53.47;102320.41;5120173;28;20134;-69
2022/05/01 04:35:31;;;;;;;8.13;6.75;;;;;;;12.12;53.09;102323.09;5136271;27;20132;-69
2022/05/01 04:38:00;;;;;;;8.88;6.75;;;;;;;12.12;53.38;102327.66;5118719;27;20265;-69
2022/05/01 04:40:29;;;;;;;7.95;6.13;;;;;;;12.12;53.25;102320.41;5129095;27;20039;-69
2022/05/01 04:43:07;;;;;;;10.65;7.22;;;;;;;12.10;53.23;102314.38;5125043;27;20169;-70
2022/05/01 04:45:37;;;;;;;10.30;7.53;;;;;;;12.10;53.59;102319.75;5134216;27;20051;-69
2022/05/01 04:48:09;;;;;;;10.65;7.07;;;;;;;12.08;53.46;102316.44;5133126;27;20048;-69
2022/05/01 04:50:38;;;;;;;10.52;7.28;;;;;;;12.09;53.55;102325.34;5128632;27;20067;-69
2022/05/01 04:53:07;;;;;;;8.85;7.35;;;;;;;12.05;53.46;102323.03;5120818;27;20039;-69
2022/05/01 04:55:35;;;;;;;9.85;6.90;;;;;;;12.04;53.50;102317.84;5126299;27;20077;-69
2022/05/01 04:58:03;;;;;;;12.50;8.00;;;;;;;12.04;53.40;102334.84;5118635;27;20091;-69
2022/05/01 05:00:32;;;;;;;10.20;7.05;;;;;;;12.03;53.67;102332.34;5123672;27;20099;-69
2022/05/01 05:03:00;;;;;;;11.98;7.22;;;;;;;12.02;53.53;102330.69;5133363;27;20115;-69
2022/05/01 05:05:29;;;;;;;9.63;6.97;;;;;;;12.02;53.77;102334.22;5119359;27;20098;-69
2022/05/01 05:09:53;;;;;;;10.73;7.78;;;;;;;12.01;53.63;102332.53;5132046;27;20499;-69
2022/05/01 05:10:47;;;;;;;9.32;7.30;;;;;;;12.01;53.41;102342.50;5124703;28;20118;-69
2022/05/01 05:13:25;;;;;;;10.80;6.75;;;;;;;12.00;53.59;102346.22;5122940;28;20076;-69
2022/05/01 05:15:58;;;;;;;11.90;8.35;;;;;;;11.97;53.79;102333.13;5123249;28;20047;-69
2022/05/01 05:18:26;;;;;;;10.52;7.63;;;;;;;11.99;53.61;102345.38;5115612;27;20093;-69
2022/05/01 05:20:54;;;;;;;10.02;7.05;;;;;;;12.00;53.64;102340.81;5119275;27;20081;-68
2022/05/01 05:23:22;;;;;;;12.77;7.72;;;;;;;11.98;53.50;102343.72;5119242;27;20044;-69
2022/05/01 05:25:50;;;;;;;11.75;7.93;;;;;;;11.94;53.48;102333.50;5128764;27;20047;-69
2022/05/01 05:28:18;;;;;;;11.35;7.88;;;;;;;11.97;53.57;102339.34;5125938;27;20550;-69
2022/05/01 05:30:48;;;;;;;12.38;7.80;;;;;;;11.97;53.62;102347.44;5128471;27;20051;-67
2022/05/01 05:33:18;;;;;;;10.77;7.97;;;;;;;11.98;53.36;102348.28;5129102;27;20521;-69
2022/05/01 05:35:46;;;;;;;11.82;7.30;;;;;;;11.99;53.47;102352.63;5122063;27;20077;-68
2022/05/01 05:38:14;;;;;;;10.32;7.95;;;;;;;11.96;53.51;102348.47;5117425;27;20043;-71
2022/05/01 05:40:42;;;;;;;10.50;7.88;;;;;;;11.97;53.82;102350.13;5129690;27;20052;-70
2022/05/01 05:43:10;;;;;;;10.23;8.20;;;;;;;11.96;53.89;102356.53;5124514;28;20040;-69
2022/05/01 05:45:37;;;;;;;12.63;8.75;;;;;;;11.95;53.89;102351.34;5122258;27;20058;-70
2022/05/01 05:48:06;;;;;;;9.15;7.45;;;;;;;11.96;53.98;102348.47;5122266;27;20047;-72
2022/05/01 05:50:35;;;;;;;12.55;8.32;;;;;;;11.95;53.92;102352.19;5123622;27;20052;-70
2022/05/01 05:53:03;;;;;;;11.13;8.65;;;;;;;11.94;53.93;102355.91;5121677;27;20048;-71
2022/05/01 05:55:33;;;;;;;11.98;8.30;;;;;;;11.95;53.90;102360.25;5123669;27;20434;-71
2022/05/01 05:58:02;;;;;;;11.68;8.85;;;;;;;11.96;53.73;102374.56;5129387;27;20055;-70
2022/05/01 06:00:29;;;;;;;12.18;8.73;;;;;;;11.95;53.98;102368.34;5126277;27;20070;-71
2022/05/01 06:02:57;;;;;;;12.40;8.73;;;;;;;11.96;53.76;102367.31;5117845;28;20040;-72
2022/05/01 06:05:25;;;;;;;11.02;8.10;;;;;;;11.93;53.74;102367.72;5120165;28;20044;-72
2022/05/01 06:07:54;;;;;;;13.48;8.98;;;;;;;11.96;53.79;102367.31;5135092;27;20058;-71
2022/05/01 06:10:22;;;;;;;13.20;8.57;;;;;;;11.97;53.58;102373.53;5129303;27;20063;-69
2022/05/01 06:12:59;;;;;;;12.61;8.02;;;;;;;11.96;53.45;102369.19;5102647;27;10000994;-69
2022/05/01 06:15:27;;;;;;;12.05;7.82;;;;;;;11.99;53.64;102379.56;5109884;27;20372;-71
2022/05/01 06:17:54;;;;;;;11.85;9.32;;;;;;;12.01;53.42;102374.81;5121288;28;20063;-69
2022/05/01 06:20:22;;;;;;;13.40;9.25;;;;;;;11.98;54.27;102372.53;5127819;27;20075;-69
2022/05/01 06:22:51;;;;;;;11.57;8.57;;;;;;;11.99;54.13;102380.41;5130669;27;20078;-68
2022/05/01 06:25:20;;;;;;;12.70;8.50;;;;;;;11.99;54.21;102377.72;5127713;27;20043;-68
2022/05/01 06:27:48;;;;;;;15.60;8.88;;;;;;;11.99;54.16;102383.09;5131452;27;20043;-68
2022/05/01 06:30:15;;;;;;;13.82;9.57;;;;;;;11.93;54.15;102366.88;5115696;27;20067;-68
2022/05/01 06:32:44;;;;;;;14.57;9.27;;;;;;;11.99;54.15;102375.00;5117602;27;20075;-69
2022/05/01 06:35:12;;;;;;;14.93;9.77;;;;;;;11.99;54.08;102377.72;5117003;27;20180;-68
2022/05/01 06:37:40;;;;;;;12.77;9.13;;;;;;;11.98;54.04;102375.22;5119040;27;20071;-67
2022/05/01 06:40:09;;;;;;;13.45;8.70;;;;;;;12.03;53.97;102388.94;5123785;27;20044;-68
2022/05/01 06:42:38;;;;;;;11.88;8.98;;;;;;;11.99;54.06;102379.56;5133642;27;20380;-68
2022/05/01 06:45:13;;;;;;;11.93;8.95;;;;;;;12.08;54.17;102380.28;5015729;27;10000391;-68
2022/05/01 06:47:40;;;;;;;14.68;9.00;;;;;;;12.09;54.21;102382.78;5121791;27;20270;-67
2022/05/01 06:50:09;;;;;;;13.38;9.00;;;;;;;12.10;54.11;102384.44;5119544;28;20063;-67
2022/05/01 06:52:37;;;;;;;15.30;9.02;;;;;;;12.12;54.13;102378.84;5120986;27;20067;-67
2022/05/01 06:55:06;;;;;;;13.15;9.05;;;;;;;12.15;54.10;102383.81;5113097;27;20101;-67
2022/05/01 06:57:34;;;;;;;11.70;9.15;;;;;;;12.12;54.07;102377.00;5120396;27;20109;-68
2022/05/01 07:00:04;;;;;;;13.25;9.10;;;;;;;12.15;54.30;102378.44;5113823;27;20174;-69
2022/05/01 07:02:31;;;;;;;12.70;9.18;;;;;;;12.17;54.10;102384.47;5127888;27;20081;-69
2022/05/01 07:04:59;;;;;;;16.63;8.93;;;;;;;12.19;54.06;102383.25;5114579;28;20365;-69
2022/05/01 07:07:27;;;;;;;11.10;8.77;;;;;;;12.18;54.15;102370.78;5127733;27;20158;-69
2022/05/01 07:09:55;;;;;;;14.25;8.63;;;;;;;12.20;54.21;102382.22;5123391;27;20075;-68
2022/05/01 07:12:23;;;;;;;14.23;8.98;;;;;;;12.23;54.17;102379.13;5118999;27;20048;-70
2022/05/01 07:14:51;;;;;;;12.75;8.70;;;;;;;12.22;54.10;102382.84;5107147;28;20064;-69
2022/05/01 07:17:20;;;;;;;11.30;9.02;;;;;;;12.12;54.04;102366.22;5114789;28;20090;-69
2022/05/01 07:19:47;;;;;;;13.75;9.27;;;;;;;12.25;54.11;102379.75;5113155;28;20416;-69
2022/05/01 07:22:17;;;;;;;13.82;9.48;;;;;;;12.26;54.01;102384.13;5128381;27;20076;-70
2022/05/01 07:24:44;;;;;;;13.68;9.25;;;;;;;12.31;54.05;102391.63;5124818;27;20078;-69
2022/05/01 07:27:12;;;;;;;13.73;8.95;;;;;;;12.22;54.29;102365.84;5118576;28;20072;-69
2022/05/01 07:29:40;;;;;;;11.15;8.90;;;;;;;12.34;54.10;102385.84;5123973;27;20051;-69
2022/05/01 07:32:09;;;;;;;13.13;9.25;;;;;;;12.34;54.06;102381.28;5119826;28;20585;-70
2022/05/01 07:34:38;;;;;;;14.43;9.32;;;;;;;12.36;54.15;102381.94;5119324;28;20145;-69
2022/05/01 07:37:06;;;;;;;12.85;8.95;;;;;;;12.33;54.02;102376.94;5115732;28;20051;-70
2022/05/01 07:39:34;;;;;;;14.43;9.55;;;;;;;12.36;54.10;102381.09;5115828;28;20040;-70
2022/05/01 07:42:02;;;;;;;11.77;8.95;;;;;;;12.36;54.17;102386.47;5128605;28;20083;-69
2022/05/01 07:44:29;;;;;;;16.58;10.00;;;;;;;12.35;54.20;102379.44;5116416;28;20048;-69
2022/05/01 07:46:57;;;;;;;18.02;9.77;;;;;;;12.35;54.51;102384.81;5121875;28;20498;-72
2022/05/01 07:49:25;;;;;;;13.43;9.27;;;;;;;12.36;54.50;102389.19;5124336;27;20072;-70
2022/05/01 07:51:54;;;;;;;14.40;8.82;;;;;;;12.35;54.46;102390.22;5134773;27;20106;-71
2022/05/01 07:54:22;;;;;;;15.38;9.35;;;;;;;12.37;54.49;102385.44;5127355;27;20060;-71
2022/05/01 07:56:50;;;;;;;14.52;9.80;;;;;;;12.37;54.40;102380.06;5125883;27;20040;-70
2022/05/01 07:59:18;;;;;;;12.60;8.63;;;;;;;12.38;54.21;102379.88;5133962;27;20044;-70
2022/05/01 08:01:45;;;;;;;12.48;8.52;;;;;;;12.38;54.18;102379.88;5123984;28;20187;-71
2022/05/01 08:04:28;;;;;;;16.25;7.75;;;;;;;12.37;53.82;102380.91;5127128;27;20051;-71
2022/05/01 08:06:59;;;;;;;12.35;8.38;;;;;;;12.37;53.83;102375.50;5130316;27;20054;-70
2022/05/01 08:09:27;;;;;;;10.95;7.30;;;;;;;12.37;53.69;102380.91;5121486;27;20043;-74
2022/05/01 08:11:56;;;;;;;13.27;8.13;;;;;;;12.39;53.50;102381.53;5137238;27;20048;-74
2022/05/01 08:14:24;;;;;;;10.23;7.47;;;;;;;12.40;53.58;102382.38;5126246;28;20054;-75
2022/05/01 08:16:52;;;;;;;11.45;7.22;;;;;;;12.42;53.40;102376.78;5122476;28;20492;-75
2022/05/01 08:22:07;;;;;;;11.32;8.02;;;;;;;12.38;53.28;102369.09;5115959;28;20066;-75
2022/05/01 08:24:35;;;;;;;9.88;6.93;;;;;;;12.41;53.32;102377.81;5122247;28;20040;-70
2022/05/01 08:27:06;;;;;;;13.98;7.00;;;;;;;12.41;53.21;102383.19;5127088;28;20074;-69
2022/05/01 08:29:34;;;;;;;13.65;7.25;;;;;;;12.37;53.21;102359.31;5126536;27;20357;-69
2022/05/01 08:32:02;;;;;;;10.32;6.40;;;;;;;12.39;53.17;102370.75;5120893;28;20062;-68
2022/05/01 08:34:29;;;;;;;9.45;6.63;;;;;;;12.39;53.14;102368.06;5126974;28;20059;-69
2022/05/01 08:36:57;;;;;;;9.55;6.75;;;;;;;12.35;52.95;102369.47;5105597;28;20067;-69
2022/05/01 08:39:26;;;;;;;10.05;6.85;;;;;;;12.41;52.90;102372.41;5103333;28;20083;-69
2022/05/01 08:41:54;;;;;;;14.23;6.85;;;;;;;12.40;52.83;102371.59;5115645;28;20075;-69
2022/05/01 08:44:30;;;;;;;9.13;6.18;;;;;;;12.40;52.60;102371.59;5104438;28;20052;-69
2022/05/01 08:47:09;;;;;;;8.32;5.55;;;;;;;12.38;52.78;102371.78;5100158;28;20049;-68
2022/05/01 08:49:39;;;;;;;9.82;6.50;;;;;;;12.38;52.80;102366.38;5094893;28;20408;-69
2022/05/01 08:52:08;;;;;;;8.40;6.15;;;;;;;12.39;52.37;102362.66;5105769;28;20629;-70
2022/05/01 08:54:41;;;;;;;9.05;6.25;;;;;;;12.39;52.38;102369.91;5105300;28;20048;-69
2022/05/01 08:57:09;;;;;;;8.75;5.57;;;;;;;12.40;52.30;102363.50;5108647;28;20048;-70
2022/05/01 08:59:37;;;;;;;9.02;5.47;;;;;;;12.42;52.25;102366.81;5104621;28;20080;-69
2022/05/01 09:02:11;;;;;;;7.72;5.72;;;;;;;12.44;52.17;102369.31;5105927;28;20087;-68
2022/05/01 09:04:41;;;;;;;12.10;5.30;;;;;;;12.44;51.96;102367.47;5104204;28;20466;-68
2022/05/01 09:07:09;;;;;;;8.13;5.35;;;;;;;12.44;51.94;102364.75;5105247;28;20070;-69
2022/05/01 09:09:37;;;;;;;6.88;5.07;;;;;;;12.47;51.72;102369.75;5101336;28;20152;-68
2022/05/01 09:14:53;;;;;;;8.35;4.70;;;;;;;12.49;51.79;102366.88;5097128;28;20092;-67
2022/05/01 09:17:23;;;;;;;8.90;4.45;;;;;;;12.50;51.61;102360.44;5090632;28;20044;-70
2022/05/01 09:19:53;;;;;;;8.75;5.43;;;;;;;12.51;51.64;102367.50;5104392;28;20101;-68
2022/05/01 09:22:22;;;;;;;6.60;4.63;;;;;;;12.53;51.28;102368.16;5101762;28;20109;-69
2022/05/01 09:24:53;;;;;;;8.55;4.97;;;;;;;12.54;51.43;102364.41;5101859;28;20127;-67
2022/05/01 09:27:28;;;;;;;6.10;4.57;;;;;;;12.56;51.39;102363.19;5106218;28;20055;-69
2022/05/01 09:30:10;;;;;;;8.18;5.03;;;;;;;12.56;51.06;102362.34;5111614;28;20047;-68
2022/05/01 09:32:39;;;;;;;6.72;4.55;;;;;;;12.58;50.89;102365.69;5098508;28;20064;-67
2022/05/01 09:35:12;;;;;;;6.63;4.00;;;;;;;12.59;50.99;102368.19;5108568;27;20115;-69
2022/05/01 09:37:40;;;;;;;6.82;4.63;;;;;;;12.61;50.58;102363.44;5131629;27;20051;-69
2022/05/01 09:40:09;;;;;;;5.38;4.00;;;;;;;12.63;50.69;102369.47;5134831;27;20557;-71
2022/05/01 09:42:38;;;;;;;5.95;3.85;;;;;;;12.66;50.55;102365.53;5119854;28;20086;-71
2022/05/01 09:45:08;;;;;;;6.22;3.97;;;;;;;12.67;50.83;102361.81;5124676;28;20207;-69
2022/05/01 09:47:40;;;;;;;8.63;4.53;;;;;;;12.73;50.40;102365.56;5116781;28;20048;-68
2022/05/01 09:50:09;;;;;;;6.57;4.38;;;;;;;12.77;50.52;102373.06;5124565;27;20083;-70
2022/05/01 09:52:54;;;;;;;8.95;4.55;;;;;;;12.79;50.16;102362.91;5121442;27;20054;-68
2022/05/01 09:55:22;;;;;;;6.53;3.85;;;;;;;12.82;50.31;102367.06;5118582;28;20074;-68
2022/05/01 09:58:02;;;;;;;7.22;4.30;;;;;;;12.81;50.00;102360.84;5132447;27;20085;-68
2022/05/01 10:00:42;;;;;;;8.98;4.50;;;;;;;12.84;49.62;102365.00;5122743;27;20036;-68
2022/05/01 10:03:22;;;;;;;7.03;4.18;;;;;;;12.86;49.43;102371.03;5119781;27;20054;-69
2022/05/01 10:05:51;;;;;;;10.05;4.00;;;;;;;12.76;49.62;102354.38;5121219;27;20100;-72
2022/05/01 10:08:20;;;;;;;7.38;4.10;;;;;;;12.84;49.25;102368.53;5123677;28;20110;-66
2022/05/01 10:10:50;;;;;;;8.00;4.40;;;;;;;12.90;49.36;102366.91;5128080;27;20039;-72
2022/05/01 10:13:20;;;;;;;6.78;3.95;;;;;;;12.96;49.33;102364.25;5118271;28;20082;-70
2022/05/01 10:16:07;;;;;;;5.60;3.75;;;;;;;12.94;49.25;102346.59;5120281;27;20043;-70
2022/05/01 10:18:36;;;;;;;5.88;4.25;;;;;;;13.09;49.50;102354.53;5117073;28;20161;-68
2022/05/01 10:21:05;;;;;;;8.30;3.50;;;;;;;13.13;49.23;102363.91;5125011;27;20126;-70
2022/05/01 10:23:34;;;;;;;8.32;4.28;;;;;;;13.14;49.49;102352.91;5121842;28;20094;-67
2022/05/01 10:26:09;;;;;;;5.47;3.63;;;;;;;13.16;49.42;102350.84;5123408;27;20067;-69
2022/05/01 10:29:21;;;;;;;7.60;4.25;;;;;;;13.18;49.58;102348.78;5119523;28;20365;-69
2022/05/01 10:32:21;;;;;;;5.45;3.90;;;;;;;13.07;49.51;102333.16;5116839;27;20047;-66
2022/05/01 10:35:26;;;;;;;4.72;3.35;;;;;;;13.22;49.43;102354.63;5120182;28;20058;-69
2022/05/01 10:38:16;;;;;;;5.50;3.50;;;;;;;13.18;49.77;102337.16;5122962;27;20048;-69
2022/05/01 10:40:49;;;;;;;7.55;3.50;;;;;;;13.23;49.30;102340.09;5117921;28;20492;-71
2022/05/01 10:43:25;;;;;;;7.95;3.70;;;;;;;13.23;49.22;102337.38;5126772;27;20082;-73
2022/05/01 10:45:54;;;;;;;9.50;3.65;;;;;;;13.23;49.47;102334.69;5114424;28;20118;-70
2022/05/01 10:48:36;;;;;;;5.80;3.35;;;;;;;13.24;49.27;102323.69;5108872;28;20059;-70
2022/05/01 10:51:41;;;;;;;6.45;3.60;;;;;;;13.27;49.35;102331.38;5121691;27;20064;-69
2022/05/01 10:54:38;;;;;;;4.63;3.25;;;;;;;13.31;49.76;102323.69;5118381;27;20059;-70
2022/05/01 10:57:14;;;;;;;5.10;3.15;;;;;;;13.32;49.48;102320.78;5110240;27;20058;-69
2022/05/01 10:59:47;;;;;;;5.65;3.63;;;;;;;13.35;50.82;102314.16;5117739;28;20071;-69
2022/05/01 11:02:25;;;;;;;7.70;3.92;;;;;;;13.37;50.01;102308.56;5122704;28;20104;-70
2022/05/01 11:04:56;;;;;;;6.28;3.72;;;;;;;13.41;49.18;102313.34;5124540;27;20202;-70
2022/05/01 11:07:26;;;;;;;5.18;3.85;;;;;;;13.42;49.06;102308.78;5123334;28;20051;-70
2022/05/01 11:09:56;;;;;;;7.45;3.70;;;;;;;13.44;49.31;102314.81;5124630;27;20157;-71
2022/05/01 11:12:26;;;;;;;6.35;3.47;;;;;;;13.44;49.23;102310.22;5124677;27;20052;-73
2022/05/01 11:14:56;;;;;;;6.68;3.67;;;;;;;13.46;49.47;102301.91;5126106;27;20046;-74
2022/05/01 11:17:52;;;;;;;5.43;3.50;;;;;;;13.52;49.87;102304.63;5123152;28;20515;-72
2022/05/01 11:20:34;;;;;;;8.15;3.72;;;;;;;13.54;48.91;102299.84;5121934;27;20087;-70
2022/05/01 11:23:33;;;;;;;7.72;4.03;;;;;;;13.56;48.50;102305.88;5109316;28;20052;-70
2022/05/01 11:26:13;;;;;;;5.75;3.55;;;;;;;13.58;48.51;102295.72;5131268;27;20076;-71
2022/05/01 11:29:13;;;;;;;8.00;3.58;;;;;;;13.61;48.80;102286.34;5115478;28;20043;-71
2022/05/01 11:31:46;;;;;;;6.53;3.75;;;;;;;13.64;48.83;102285.94;5122318;27;20052;-70
2022/05/01 11:34:52;;;;;;;7.35;4.38;;;;;;;13.65;48.41;102282.22;5120760;28;20052;-70
2022/05/01 11:37:22;;;;;;;5.10;3.63;;;;;;;13.70;49.14;102273.47;5116217;28;20068;-69
2022/05/01 11:40:27;;;;;;;5.55;3.03;;;;;;;13.73;49.29;102268.50;4765281;28;10000294;-69
2022/05/01 11:43:15;;;;;;;6.40;3.20;;;;;;;13.78;49.49;102268.69;5119140;28;20488;-70
2022/05/01 11:45:45;;;;;;;7.57;3.85;;;;;;;13.81;49.19;102265.59;5119193;28;20071;-69
2022/05/01 11:48:14;;;;;;;5.15;3.72;;;;;;;13.87;49.40;102263.88;5121267;28;20059;-69
2022/05/01 11:50:44;;;;;;;5.35;3.10;;;;;;;13.91;48.84;102262.44;5117791;28;20044;-69
2022/05/01 11:53:20;;;;;;;8.30;4.07;;;;;;;13.94;48.33;102262.00;5114505;28;20538;-70
2022/05/01 12:04:29;;;;;;;4.53;3.10;;;;;;;14.01;47.34;102255.56;5129577;28;20188;-70
2022/05/01 12:07:00;;;;;;;6.70;3.85;;;;;;;14.02;47.39;102257.22;5119349;28;20299;-69